Time;durP1;ratioP1;P1;durP2;ratioP2;P2;SDS_P1;SDS_P2;PMS_P1;PMS_P2;Temp;Humidity;BMP_temperature;BMP_pressure;BME280_temperature;BME280_humidity;BME280_pressure;Samples;Min_cycle;Max_cycle;Signal;HPM_P1;HPM_P2
2021/12/16 00:09:12;;;;;;;35.17;11.25;;;7.70;99.90;;;;;;6067122;23;20085;-82
2021/12/16 00:34:07;;;;;;;37.90;11.00;;;8.60;99.90;;;;;;6187757;23;20020;-83
2021/12/16 00:36:39;;;;;;;29.27;10.23;;;8.20;99.90;;;;;;6162039;23;20024;-83
2021/12/16 00:39:29;;;;;;;30.20;10.98;;;8.90;99.90;;;;;;6162016;23;20016;-83
2021/12/16 00:42:05;;;;;;;28.27;11.20;;;9.00;99.90;;;;;;6162325;23;20020;-83
2021/12/16 00:45:04;;;;;;;31.95;10.60;;;8.20;99.90;;;;;;6186713;23;20020;-83
2021/12/16 00:50:18;;;;;;;24.70;10.05;;;8.30;99.90;;;;;;6187709;23;20346;-83
2021/12/16 00:55:46;;;;;;;34.65;10.50;;;8.80;99.90;;;;;;6186459;23;20020;-83
2021/12/16 00:58:13;;;;;;;33.67;10.57;;;8.60;99.90;;;;;;6161864;23;20017;-83
2021/12/16 01:00:53;;;;;;;35.97;10.68;;;9.00;99.90;;;;;;6187786;23;20020;-83
2021/12/16 01:03:34;;;;;;;42.17;10.13;;;8.40;99.90;;;;;;6161942;23;20163;-83
2021/12/16 01:50:14;;;;;;;23.42;8.35;;;8.60;99.90;;;;;;6187042;23;20368;-81
2021/12/16 01:55:47;;;;;;;32.85;8.73;;;8.70;99.90;;;;;;6186686;23;20098;-81
2021/12/16 01:58:31;;;;;;;32.17;9.23;;;8.70;99.90;;;;;;6159776;23;20432;-84
2021/12/16 02:01:26;;;;;;;24.02;9.23;;;8.80;99.90;;;;;;6161478;23;20488;-81
2021/12/16 02:04:29;;;;;;;29.08;9.07;;;8.60;99.90;;;;;;6158051;23;20017;-81
2021/12/16 02:09:43;;;;;;;26.60;8.48;;;8.70;99.90;;;;;;6182628;23;20028;-83
2021/12/16 02:29:32;;;;;;;24.20;8.90;;;8.60;99.90;;;;;;6155106;23;20052;-83
2021/12/16 02:32:12;;;;;;;33.00;8.80;;;8.70;99.90;;;;;;6157206;23;20017;-84
2021/12/16 02:37:49;;;;;;;25.00;9.50;;;8.60;99.90;;;;;;6150679;23;20096;-83
2021/12/16 02:40:27;;;;;;;25.17;9.18;;;8.60;99.90;;;;;;6101528;23;20013;-83
2021/12/16 02:43:01;;;;;;;25.50;9.35;;;8.60;99.90;;;;;;6099160;23;20418;-83
2021/12/16 02:53:37;;;;;;;25.70;9.00;;;8.20;99.90;;;;;;5954180;24;20031;-83
2021/12/16 03:22:18;;;;;;;;;;;;;;;;;;;;;
2021/12/16 03:25:35;;;;;;;28.90;9.88;;;7.50;99.90;;;;;;5700514;25;20139;-83
2021/12/16 03:38:37;;;;;;;26.30;8.93;;;7.70;99.90;;;;;;5660024;25;20079;-82
2021/12/16 03:41:38;;;;;;;26.48;8.95;;;7.50;99.90;;;;;;5639175;25;20427;-82
2021/12/16 03:44:37;;;;;;;27.92;9.68;;;7.50;99.90;;;;;;5631303;25;20052;-82
2021/12/16 03:47:15;;;;;;;24.60;9.13;;;7.50;99.90;;;;;;5696069;24;20032;-82
2021/12/16 03:50:01;;;;;;;30.83;8.77;;;7.50;99.90;;;;;;5765803;24;20518;-82
2021/12/16 03:52:49;;;;;;;34.72;10.48;;;7.50;99.90;;;;;;5814759;24;20014;-83
2021/12/16 03:55:35;;;;;;;26.08;9.15;;;7.40;99.90;;;;;;5892720;23;20012;-83
2021/12/16 04:01:09;;;;;;;27.60;9.23;;;7.30;99.90;;;;;;5951317;24;20028;-82
2021/12/16 04:03:46;;;;;;;31.27;9.65;;;7.70;99.90;;;;;;5953355;24;20164;-82
2021/12/16 04:06:23;;;;;;;30.17;9.48;;;6.90;99.90;;;;;;5954291;24;20020;-82
2021/12/16 04:09:05;;;;;;;;;;;;;;;;;;;;;
2021/12/16 04:12:02;;;;;;;26.50;10.23;;;6.60;99.90;;;;;;6008552;23;20311;-82
2021/12/16 04:14:45;;;;;;;33.33;9.27;;;7.00;99.90;;;;;;6079079;23;20014;-82
2021/12/16 04:17:36;;;;;;;34.00;9.77;;;7.20;99.90;;;;;;6073941;23;20026;-82
2021/12/16 04:20:29;;;;;;;36.10;10.65;;;6.70;99.90;;;;;;6073226;23;20025;-82
2021/12/16 04:23:06;;;;;;;34.47;10.23;;;7.00;99.90;;;;;;6072394;23;20472;-82
2021/12/16 04:26:06;;;;;;;29.25;10.38;;;6.60;99.90;;;;;;6073211;23;20033;-82
2021/12/16 04:29:05;;;;;;;27.92;10.18;;;7.30;99.90;;;;;;6070048;23;20847;-82
2021/12/16 04:31:36;;;;;;;34.35;10.30;;;7.50;99.90;;;;;;6073839;23;20014;-82
2021/12/16 04:34:33;;;;;;;37.20;10.75;;;6.80;99.90;;;;;;6074889;23;20017;-82
2021/12/16 04:37:30;;;;;;;24.17;10.73;;;6.80;99.90;;;;;;6075971;23;20015;-82
2021/12/16 04:43:56;;;;;;;33.35;11.70;;;7.10;99.90;;;;;;5991589;23;20023;-83
2021/12/16 04:55:23;;;;;;;27.02;9.90;;;6.70;99.90;;;;;;5978099;24;20345;-83
2021/12/16 04:58:42;;;;;;;36.80;11.23;;;6.40;99.90;;;;;;5894728;24;20024;-83
2021/12/16 05:24:54;;;;;;;37.50;12.30;;;6.50;99.90;;;;;;6152897;23;20099;-83
2021/12/16 05:27:36;;;;;;;34.42;11.27;;;6.60;99.90;;;;;;6161412;23;20017;-82
2021/12/16 05:30:10;;;;;;;35.47;11.25;;;6.10;99.90;;;;;;6164425;23;20016;-87
2021/12/16 05:32:36;;;;;;;33.28;11.75;;;6.50;99.90;;;;;;6186316;23;20020;-82
2021/12/16 05:35:02;;;;;;;32.75;11.98;;;7.20;99.90;;;;;;6186434;23;20039;-82
2021/12/16 05:37:28;;;;;;;33.22;11.90;;;6.50;99.90;;;;;;6186850;23;20016;-82
2021/12/16 05:39:53;;;;;;;33.03;12.07;;;6.50;99.90;;;;;;6161243;23;20013;-82
2021/12/16 05:42:19;;;;;;;31.02;12.30;;;7.10;99.90;;;;;;6185962;23;20809;-82
2021/12/16 05:44:45;;;;;;;36.80;12.60;;;6.50;99.90;;;;;;6184825;23;20045;-82
2021/12/16 05:47:26;;;;;;;29.27;12.00;;;6.50;99.90;;;;;;6161257;23;20019;-82
2021/12/16 05:49:52;;;;;;;36.60;12.82;;;6.50;99.90;;;;;;6138479;23;20112;-82
2021/12/16 05:52:20;;;;;;;33.55;13.00;;;6.50;99.90;;;;;;6187620;23;20016;-83
2021/12/16 06:27:30;;;;;;;36.75;11.52;;;6.50;99.90;;;;;;5926517;24;20021;-84
2021/12/16 06:29:59;;;;;;;39.60;13.07;;;6.30;99.90;;;;;;5902709;24;20024;-84
2021/12/16 06:32:28;;;;;;;33.72;13.10;;;7.00;99.90;;;;;;5904528;24;20028;-81
2021/12/16 06:34:55;;;;;;;34.78;12.40;;;7.00;99.90;;;;;;5926772;24;20353;-81
2021/12/16 06:37:21;;;;;;;32.17;13.10;;;6.60;99.90;;;;;;5903925;24;20032;-81
2021/12/16 06:39:47;;;;;;;39.25;13.43;;;6.90;99.90;;;;;;5903324;24;20469;-81
2021/12/16 06:42:13;;;;;;;29.80;12.20;;;6.20;99.90;;;;;;5926579;24;20170;-82
2021/12/16 06:44:45;;;;;;;31.70;12.40;;;6.20;99.90;;;;;;5902401;24;20020;-85
2021/12/16 06:47:23;;;;;;;27.50;12.43;;;6.20;99.90;;;;;;5903063;24;20016;-81
2021/12/16 06:49:55;;;;;;;24.58;12.05;;;6.20;99.90;;;;;;5932482;23;20455;-83
2021/12/16 06:52:29;;;;;;;29.98;11.60;;;6.20;99.90;;;;;;6091779;23;20017;-82
2021/12/16 06:55:15;;;;;;;34.73;12.10;;;6.40;99.90;;;;;;6212665;23;20009;-82
2021/12/16 06:57:50;;;;;;;34.67;12.60;;;6.70;99.90;;;;;;6158796;23;20111;-81
2021/12/16 07:00:29;;;;;;;32.72;13.48;;;6.60;99.90;;;;;;6160403;23;20008;-82
2021/12/16 07:03:04;;;;;;;30.52;13.48;;;6.10;99.90;;;;;;6161173;23;20028;-81
2021/12/16 07:05:37;;;;;;;32.28;13.73;;;6.20;99.90;;;;;;6173650;23;20013;-83
2021/12/16 07:08:12;;;;;;;32.30;13.10;;;6.10;99.90;;;;;;6156853;23;20020;-82
2021/12/16 07:10:38;;;;;;;31.05;13.43;;;6.00;99.90;;;;;;6119575;23;20013;-81
2021/12/16 07:13:09;;;;;;;33.97;13.43;;;6.10;99.90;;;;;;6155033;23;20124;-81
2021/12/16 07:15:37;;;;;;;33.25;13.35;;;6.80;99.90;;;;;;6155514;23;20012;-81
2021/12/16 07:18:04;;;;;;;47.33;14.52;;;6.80;99.90;;;;;;6179847;23;20090;-81
2021/12/16 07:20:33;;;;;;;39.22;14.15;;;6.40;99.90;;;;;;6180774;23;20024;-81
2021/12/16 07:23:01;;;;;;;34.80;13.13;;;6.90;99.90;;;;;;6154565;23;20369;-81
2021/12/16 07:25:27;;;;;;;32.55;13.48;;;6.10;99.90;;;;;;6154652;23;20021;-82
2021/12/16 07:27:53;;;;;;;37.22;14.80;;;6.60;99.90;;;;;;6178978;23;20426;-81
2021/12/16 07:30:22;;;;;;;28.27;13.13;;;6.50;99.90;;;;;;6156237;23;20040;-80
2021/12/16 07:32:49;;;;;;;30.10;12.93;;;6.20;99.90;;;;;;6181659;23;20021;-81
2021/12/16 07:35:18;;;;;;;33.10;12.57;;;6.30;99.90;;;;;;6180418;23;20020;-79
2021/12/16 07:37:48;;;;;;;34.10;13.48;;;6.20;99.90;;;;;;6179799;23;20024;-82
2021/12/16 07:40:16;;;;;;;29.30;13.30;;;6.70;99.90;;;;;;6180300;23;20019;-78
2021/12/16 07:42:46;;;;;;;27.40;11.98;;;6.10;99.90;;;;;;6155788;23;20040;-81
2021/12/16 07:45:15;;;;;;;31.92;13.70;;;6.60;99.90;;;;;;6152963;23;20270;-80
2021/12/16 07:47:41;;;;;;;25.65;12.05;;;6.10;99.90;;;;;;6182367;23;20024;-79
2021/12/16 07:50:08;;;;;;;37.25;14.23;;;6.10;99.90;;;;;;6182131;23;20028;-79
2021/12/16 07:52:35;;;;;;;44.63;15.15;;;6.10;99.90;;;;;;6182624;23;20013;-82
2021/12/16 07:55:02;;;;;;;47.58;15.63;;;6.20;99.90;;;;;;6155517;23;20079;-76
2021/12/16 07:57:28;;;;;;;44.45;15.05;;;6.80;99.90;;;;;;6157396;23;20017;-80
2021/12/16 07:59:54;;;;;;;35.53;15.45;;;6.20;99.90;;;;;;6156070;23;20790;-80
2021/12/16 08:02:22;;;;;;;36.17;14.40;;;6.30;99.90;;;;;;6181811;23;20095;-79
2021/12/16 08:04:52;;;;;;;50.45;15.65;;;6.30;99.90;;;;;;6156555;23;20409;-80
2021/12/16 08:07:22;;;;;;;38.55;15.43;;;6.40;99.90;;;;;;6181715;23;20013;-78
2021/12/16 08:09:49;;;;;;;35.45;13.68;;;6.30;99.90;;;;;;6182284;23;20144;-77
2021/12/16 08:12:16;;;;;;;35.22;14.73;;;6.30;99.90;;;;;;6183638;23;20052;-77
2021/12/16 08:14:43;;;;;;;45.50;16.27;;;6.40;99.90;;;;;;6131793;23;20017;-77
2021/12/16 08:17:10;;;;;;;33.35;15.07;;;6.40;99.90;;;;;;6183695;23;20322;-77
2021/12/16 08:19:36;;;;;;;45.28;16.48;;;6.40;99.90;;;;;;6182686;23;20487;-77
2021/12/16 08:22:03;;;;;;;41.35;16.08;;;6.40;99.90;;;;;;6183056;23;20374;-76
2021/12/16 08:24:29;;;;;;;42.60;16.90;;;6.40;99.90;;;;;;6156908;23;20485;-75
2021/12/16 08:26:55;;;;;;;34.15;15.30;;;6.40;99.90;;;;;;6181664;23;20049;-77
2021/12/16 08:29:24;;;;;;;45.58;15.60;;;6.40;99.90;;;;;;6181120;23;20282;-78
2021/12/16 08:31:51;;;;;;;43.55;15.32;;;6.50;99.90;;;;;;6179715;23;20067;-80
2021/12/16 08:34:18;;;;;;;38.30;15.60;;;6.60;99.90;;;;;;6180799;23;20043;-78
2021/12/16 08:36:45;;;;;;;36.63;15.88;;;6.50;99.90;;;;;;6157152;23;20017;-78
2021/12/16 08:39:11;;;;;;;42.20;16.55;;;6.60;99.90;;;;;;6155087;23;20044;-78
2021/12/16 08:41:47;;;;;;;41.47;15.38;;;6.70;99.90;;;;;;6182274;23;20144;-79
2021/12/16 08:44:13;;;;;;;41.13;16.25;;;6.60;99.90;;;;;;6179449;23;20100;-79
2021/12/16 08:46:44;;;;;;;30.20;14.52;;;6.70;99.90;;;;;;6182443;23;20020;-78
2021/12/16 08:49:10;;;;;;;52.35;16.75;;;6.60;99.90;;;;;;6180355;23;20020;-78
2021/12/16 08:51:41;;;;;;;47.80;16.88;;;6.70;99.90;;;;;;6179721;23;20017;-79
2021/12/16 08:54:07;;;;;;;41.83;16.45;;;6.70;99.90;;;;;;6154568;23;20017;-78
2021/12/16 08:56:34;;;;;;;41.33;16.48;;;6.70;99.90;;;;;;6155956;23;20040;-79
2021/12/16 08:59:03;;;;;;;31.75;15.20;;;6.70;99.90;;;;;;6178636;23;20032;-78
2021/12/16 09:01:33;;;;;;;37.40;16.15;;;6.80;99.90;;;;;;6180008;23;20024;-79
2021/12/16 09:03:59;;;;;;;38.97;17.20;;;6.80;99.90;;;;;;6155042;23;20112;-79
2021/12/16 09:06:25;;;;;;;44.22;18.50;;;6.80;99.90;;;;;;6180664;23;20059;-79
2021/12/16 09:08:51;;;;;;;39.33;16.52;;;6.80;99.90;;;;;;6181868;23;20017;-78
2021/12/16 09:11:22;;;;;;;35.40;17.75;;;6.90;99.90;;;;;;6180745;23;20398;-78
2021/12/16 09:13:50;;;;;;;42.67;17.38;;;7.10;99.90;;;;;;6153881;23;20027;-78
2021/12/16 09:16:19;;;;;;;39.72;17.05;;;6.90;99.90;;;;;;6155765;23;20025;-78
2021/12/16 09:18:46;;;;;;;44.38;17.33;;;7.10;99.90;;;;;;6181634;23;20023;-78
2021/12/16 09:21:21;;;;;;;49.95;18.08;;;7.20;99.90;;;;;;6157049;23;20017;-77
2021/12/16 09:23:48;;;;;;;43.45;17.70;;;7.10;99.90;;;;;;6132505;23;20025;-78
2021/12/16 09:26:15;;;;;;;46.63;18.35;;;7.20;99.90;;;;;;6181578;23;20146;-77
2021/12/16 09:28:41;;;;;;;50.40;18.60;;;7.10;99.90;;;;;;6181467;23;20013;-76
2021/12/16 09:31:11;;;;;;;66.53;20.13;;;7.10;99.90;;;;;;6182348;23;20402;-77
2021/12/16 09:33:42;;;;;;;67.80;20.63;;;7.20;99.90;;;;;;6181158;23;20021;-77
2021/12/16 09:36:09;;;;;;;69.65;21.77;;;7.20;99.90;;;;;;6156322;23;20017;-77
2021/12/16 09:38:35;;;;;;;85.10;22.23;;;7.20;99.90;;;;;;6180710;23;20024;-77
2021/12/16 09:41:01;;;;;;;103.90;22.77;;;7.20;99.90;;;;;;6181318;23;20013;-80
2021/12/16 09:43:36;;;;;;;122.43;25.10;;;7.30;99.90;;;;;;6182029;23;20044;-77
2021/12/16 09:46:10;;;;;;;85.75;24.88;;;7.30;99.90;;;;;;6182642;23;20013;-77
2021/12/16 09:48:37;;;;;;;123.43;25.08;;;7.40;99.90;;;;;;6181541;23;20012;-78
2021/12/16 09:51:07;;;;;;;204.52;29.33;;;7.40;99.90;;;;;;6182038;23;20013;-77
2021/12/16 09:53:35;;;;;;;125.47;25.55;;;7.50;99.90;;;;;;6156009;23;20382;-78
2021/12/16 09:56:02;;;;;;;64.55;24.13;;;7.60;99.90;;;;;;6182340;23;20028;-77
2021/12/16 09:58:33;;;;;;;90.97;25.55;;;7.60;99.90;;;;;;6154505;23;20032;-76
2021/12/16 10:01:00;;;;;;;219.68;27.70;;;7.60;99.90;;;;;;6181781;23;20021;-78
2021/12/16 10:03:27;;;;;;;167.40;26.42;;;7.60;99.90;;;;;;6156751;23;20425;-76
2021/12/16 10:05:53;;;;;;;53.45;22.50;;;7.70;99.90;;;;;;6181804;23;20016;-77
2021/12/16 10:08:20;;;;;;;259.75;28.48;;;7.80;99.90;;;;;;6156223;23;20009;-82
2021/12/16 10:10:46;;;;;;;96.53;24.20;;;7.70;99.90;;;;;;6157168;23;20021;-82
2021/12/16 10:13:20;;;;;;;139.27;23.55;;;7.90;99.90;;;;;;6155562;23;20059;-78
2021/12/16 10:18:35;;;;;;;221.15;25.52;;;7.80;99.90;;;;;;6182127;23;20059;-79
2021/12/16 10:21:05;;;;;;;304.33;28.98;;;7.90;99.90;;;;;;6182234;23;20017;-80
2021/12/16 10:23:44;;;;;;;211.07;24.90;;;7.90;99.90;;;;;;6181934;23;20052;-80
2021/12/16 10:26:19;;;;;;;73.05;22.10;;;7.80;99.90;;;;;;6156518;23;20090;-79
2021/12/16 10:28:52;;;;;;;297.52;29.70;;;7.90;99.90;;;;;;6178920;23;20394;-78
2021/12/16 10:31:20;;;;;;;135.13;23.70;;;8.10;99.90;;;;;;6181784;23;20076;-79
2021/12/16 10:33:58;;;;;;;257.70;28.88;;;7.80;99.90;;;;;;6181297;23;20330;-79
2021/12/16 10:36:26;;;;;;;205.68;26.90;;;7.90;99.90;;;;;;6181302;23;20013;-79
2021/12/16 10:38:59;;;;;;;257.08;28.27;;;7.90;99.90;;;;;;6181454;23;20013;-79
2021/12/16 10:41:32;;;;;;;186.32;24.88;;;7.90;99.90;;;;;;6182358;23;20013;-79
2021/12/16 10:44:04;;;;;;;58.80;21.88;;;7.90;99.90;;;;;;6155160;23;20031;-79
2021/12/16 10:46:33;;;;;;;191.25;25.88;;;7.90;99.90;;;;;;6157013;23;20013;-81
2021/12/16 10:49:03;;;;;;;219.40;27.15;;;7.90;99.90;;;;;;6155582;23;20525;-79
2021/12/16 10:51:33;;;;;;;139.13;24.08;;;7.90;99.90;;;;;;6181350;23;20047;-79
2021/12/16 10:54:08;;;;;;;101.25;23.52;;;8.00;99.90;;;;;;6156494;23;20100;-79
2021/12/16 10:57:00;;;;;;;198.55;27.05;;;8.00;99.90;;;;;;6182019;23;20017;-79
2021/12/16 10:59:30;;;;;;;85.93;23.55;;;8.10;99.90;;;;;;6179672;23;20013;-79
2021/12/16 11:01:56;;;;;;;143.07;24.55;;;8.10;99.90;;;;;;6182650;23;20543;-79
2021/12/16 11:04:39;;;;;;;174.57;21.42;;;8.20;99.90;;;;;;6156737;23;20080;-79
2021/12/16 11:07:20;;;;;;;255.20;24.67;;;8.10;99.90;;;;;;6183639;23;20043;-79
2021/12/16 11:09:48;;;;;;;196.98;23.52;;;8.10;99.90;;;;;;6181327;23;20017;-79
2021/12/16 11:12:28;;;;;;;101.50;22.80;;;8.20;99.90;;;;;;6181063;23;20421;-79
2021/12/16 11:15:19;;;;;;;155.48;22.70;;;8.20;99.90;;;;;;6156775;23;20104;-79
2021/12/16 11:18:07;;;;;;;185.57;25.42;;;8.20;99.90;;;;;;6183533;23;20075;-77
2021/12/16 11:20:45;;;;;;;189.43;24.75;;;8.20;99.90;;;;;;6097801;23;20104;-77
2021/12/16 11:23:26;;;;;;;82.70;22.40;;;8.30;99.90;;;;;;6074165;23;20070;-77
2021/12/16 11:25:55;;;;;;;119.22;22.98;;;8.30;99.90;;;;;;6074557;23;20014;-78
2021/12/16 11:28:58;;;;;;;178.35;23.08;;;8.20;99.90;;;;;;6097272;23;20045;-76
2021/12/16 11:31:32;;;;;;;121.40;21.75;;;8.30;99.90;;;;;;6012173;23;20047;-77
2021/12/16 11:34:02;;;;;;;183.70;23.15;;;8.20;99.90;;;;;;6011948;23;20132;-76
2021/12/16 11:36:30;;;;;;;83.13;20.10;;;8.30;99.90;;;;;;6012590;23;20122;-78
2021/12/16 11:39:12;;;;;;;101.30;20.98;;;8.20;99.90;;;;;;6012267;23;20099;-77
2021/12/16 11:41:45;;;;;;;152.23;22.38;;;8.30;99.90;;;;;;6035603;23;20015;-78
2021/12/16 11:44:23;;;;;;;142.48;21.73;;;8.20;99.90;;;;;;6035566;23;20023;-79
2021/12/16 11:46:54;;;;;;;102.90;22.30;;;8.30;99.90;;;;;;6035601;23;20015;-79
2021/12/16 11:49:23;;;;;;;113.75;21.98;;;8.30;99.90;;;;;;6035022;23;20023;-80
2021/12/16 11:52:06;;;;;;;110.00;21.98;;;8.50;99.90;;;;;;6035803;23;20186;-80
2021/12/16 11:55:00;;;;;;;150.82;24.15;;;8.40;99.90;;;;;;6035905;23;20831;-80
2021/12/16 11:58:08;;;;;;;110.65;22.70;;;8.40;99.90;;;;;;6061524;23;20014;-81
2021/12/16 12:04:05;;;;;;;79.38;24.00;;;8.40;99.90;;;;;;5929418;23;20024;-80
2021/12/16 12:06:53;;;;;;;73.97;23.45;;;8.50;99.90;;;;;;5880957;24;20017;-80
2021/12/16 12:10:04;;;;;;;102.82;22.85;;;8.60;99.90;;;;;;5905043;24;20062;-80
2021/12/16 12:16:08;;;;;;;89.22;22.15;;;8.50;99.90;;;;;;5927818;24;20104;-77
2021/12/16 12:18:44;;;;;;;113.95;24.42;;;8.50;99.90;;;;;;5928780;24;20458;-78
2021/12/16 12:21:23;;;;;;;74.47;24.00;;;8.70;99.90;;;;;;5929330;24;20470;-78
2021/12/16 12:23:54;;;;;;;95.65;22.23;;;8.60;99.90;;;;;;5928664;24;20104;-77
2021/12/16 12:26:21;;;;;;;112.03;23.05;;;8.60;99.90;;;;;;5907046;24;20016;-77
2021/12/16 12:28:51;;;;;;;103.63;23.98;;;8.60;99.90;;;;;;5928807;24;20048;-79
2021/12/16 12:31:23;;;;;;;87.22;22.92;;;8.60;99.90;;;;;;5948503;23;20164;-78
2021/12/16 12:33:49;;;;;;;82.63;23.10;;;8.60;99.90;;;;;;6007601;23;20016;-79
2021/12/16 12:36:16;;;;;;;96.85;24.05;;;8.60;99.90;;;;;;5960474;23;20020;-81
2021/12/16 12:38:42;;;;;;;53.53;22.33;;;8.60;99.90;;;;;;5938133;23;20479;-80
2021/12/16 12:41:11;;;;;;;54.30;22.55;;;8.60;99.90;;;;;;5981501;23;20027;-83
2021/12/16 12:43:37;;;;;;;62.92;22.55;;;8.60;99.90;;;;;;6050558;23;20022;-81
2021/12/16 12:46:07;;;;;;;60.00;21.45;;;8.70;99.90;;;;;;6105656;23;20017;-80
2021/12/16 12:48:39;;;;;;;78.93;21.80;;;8.70;99.90;;;;;;6129226;23;20040;-81
2021/12/16 12:51:07;;;;;;;68.97;20.38;;;8.80;99.90;;;;;;6104563;23;20840;-83
2021/12/16 12:53:49;;;;;;;66.93;20.63;;;8.70;99.90;;;;;;6105117;23;20445;-82
2021/12/16 12:56:20;;;;;;;62.65;21.67;;;9.00;99.90;;;;;;6129157;23;20410;-82
2021/12/16 12:58:58;;;;;;;57.50;19.90;;;8.70;99.90;;;;;;6103321;23;20020;-81
2021/12/16 13:01:41;;;;;;;57.40;21.25;;;8.80;99.90;;;;;;6128264;23;20101;-81
2021/12/16 13:04:21;;;;;;;58.10;22.55;;;8.80;99.90;;;;;;6128473;23;20186;-80
2021/12/16 13:07:09;;;;;;;74.85;24.00;;;8.80;99.90;;;;;;6128190;23;20457;-80
2021/12/16 13:09:53;;;;;;;104.65;26.45;;;8.80;99.90;;;;;;6128095;23;20096;-79
2021/12/16 13:12:24;;;;;;;129.32;28.08;;;8.80;99.90;;;;;;6132670;23;20388;-79
2021/12/16 13:14:52;;;;;;;109.10;28.40;;;8.80;99.90;;;;;;6130888;23;20124;-79
2021/12/16 13:26:23;;;;;;;63.80;21.77;;;8.90;99.90;;;;;;6157879;23;20096;-81
2021/12/16 13:29:08;;;;;;;59.15;19.65;;;8.90;99.90;;;;;;6156265;23;20024;-80
2021/12/16 13:32:05;;;;;;;64.70;20.77;;;8.90;99.90;;;;;;6132745;23;20031;-80
2021/12/16 13:34:42;;;;;;;59.15;21.10;;;8.90;99.90;;;;;;6157549;23;20027;-81
2021/12/16 13:37:20;;;;;;;48.28;18.73;;;8.90;99.90;;;;;;6157336;23;20459;-80
2021/12/16 13:39:48;;;;;;;52.35;18.45;;;8.90;99.90;;;;;;6157810;23;20439;-80
2021/12/16 13:42:15;;;;;;;53.33;18.48;;;8.90;99.90;;;;;;6156321;23;20013;-80
2021/12/16 13:44:52;;;;;;;66.65;20.33;;;8.90;99.90;;;;;;6155816;23;20099;-80
2021/12/16 13:48:05;;;;;;;52.88;18.83;;;8.90;99.90;;;;;;6132112;23;20122;-81
2021/12/16 14:02:05;;;;;;;49.38;14.75;;;8.90;99.90;;;;;;6157749;23;20439;-80
2021/12/16 14:05:04;;;;;;;70.30;18.67;;;8.90;99.90;;;;;;6137441;23;20029;-81
2021/12/16 14:07:58;;;;;;;56.35;17.05;;;8.90;99.90;;;;;;6158383;23;20337;-81
2021/12/16 14:10:43;;;;;;;49.45;16.52;;;8.90;99.90;;;;;;6133852;23;20027;-80
2021/12/16 14:45:27;;;;;;;46.33;16.05;;;8.90;99.90;;;;;;5982740;23;20517;-80
2021/12/16 14:50:29;;;;;;;50.38;15.02;;;8.90;99.90;;;;;;5982670;23;20428;-80
2021/12/16 14:52:57;;;;;;;48.72;15.30;;;8.90;99.90;;;;;;5982799;23;20102;-78
2021/12/16 14:55:25;;;;;;;47.83;15.82;;;8.80;99.90;;;;;;5982568;23;20099;-79
2021/12/16 14:57:56;;;;;;;57.72;16.13;;;8.80;99.90;;;;;;5981670;23;20019;-78
2021/12/16 15:00:41;;;;;;;52.58;16.55;;;8.80;99.90;;;;;;5982720;23;20096;-78
2021/12/16 15:03:16;;;;;;;77.28;22.55;;;8.70;99.90;;;;;;6007200;23;20018;-78
2021/12/16 15:05:46;;;;;;;69.30;20.35;;;8.70;99.90;;;;;;6067996;23;20049;-78
2021/12/16 15:08:25;;;;;;;77.75;19.88;;;8.60;99.90;;;;;;6043783;23;20080;-78
2021/12/16 15:10:53;;;;;;;63.95;20.33;;;8.60;99.90;;;;;;6068478;23;20022;-78
2021/12/16 15:13:26;;;;;;;56.05;17.42;;;8.60;99.90;;;;;;6066947;23;20367;-79
2021/12/16 15:42:59;;;;;;;53.25;17.70;;;8.50;99.90;;;;;;6206375;23;20077;-77
2021/12/16 15:45:48;;;;;;;55.45;17.73;;;8.40;99.90;;;;;;6179230;23;20048;-80
2021/12/16 15:48:23;;;;;;;47.45;17.55;;;8.40;99.90;;;;;;6191106;23;20441;-80
2021/12/16 15:51:04;;;;;;;62.50;17.52;;;8.40;99.90;;;;;;6156331;23;20389;-81
2021/12/16 15:53:52;;;;;;;62.90;17.60;;;8.40;99.90;;;;;;6180841;23;20092;-81
2021/12/16 15:56:34;;;;;;;62.70;18.67;;;8.40;99.90;;;;;;6156129;23;20028;-79
2021/12/16 15:59:05;;;;;;;56.50;18.02;;;8.40;99.90;;;;;;6154709;23;20021;-79
2021/12/16 16:01:37;;;;;;;51.13;18.15;;;8.40;99.90;;;;;;6157818;23;20501;-78
2021/12/16 16:04:18;;;;;;;52.47;19.08;;;8.40;99.90;;;;;;6182667;23;20070;-79
2021/12/16 16:06:57;;;;;;;30.77;12.98;;;8.40;99.90;;;;;;6182234;23;20008;-80
2021/12/16 16:09:35;;;;;;;54.53;18.67;;;8.50;99.90;;;;;;6136989;23;20062;-80
2021/12/16 16:12:02;;;;;;;50.00;19.40;;;8.50;99.90;;;;;;6183555;23;20123;-79
2021/12/16 16:14:32;;;;;;;55.47;19.70;;;8.50;99.90;;;;;;6182167;23;20029;-80
2021/12/16 16:16:59;;;;;;;104.55;40.53;;;8.50;99.90;;;;;;6159141;23;20437;-81
2021/12/16 16:19:34;;;;;;;63.83;28.48;;;8.60;99.90;;;;;;6158036;23;20017;-81
2021/12/16 16:22:03;;;;;;;63.60;24.50;;;9.00;99.90;;;;;;6159137;23;20017;-81
2021/12/16 16:24:33;;;;;;;98.10;39.03;;;8.50;99.90;;;;;;6158260;23;20029;-82
2021/12/16 16:27:02;;;;;;;64.35;23.92;;;8.50;99.90;;;;;;6183349;23;20455;-83
2021/12/16 16:29:31;;;;;;;118.88;36.95;;;8.50;99.90;;;;;;6183002;23;20044;-80
2021/12/16 16:31:57;;;;;;;128.25;69.18;;;8.70;99.90;;;;;;6183587;23;20304;-82
2021/12/16 16:34:32;;;;;;;106.68;41.38;;;9.10;99.90;;;;;;6157640;23;20021;-81
2021/12/16 16:37:04;;;;;;;126.88;45.00;;;8.50;99.90;;;;;;6159117;23;20016;-83
2021/12/16 16:39:34;;;;;;;137.13;42.38;;;8.50;99.90;;;;;;6156542;23;20067;-80
2021/12/16 16:42:13;;;;;;;122.95;48.03;;;8.50;99.90;;;;;;6158401;23;20392;-80
2021/12/16 16:44:40;;;;;;;145.15;39.30;;;8.50;99.90;;;;;;6181783;23;20309;-82
2021/12/16 16:47:24;;;;;;;127.43;42.58;;;8.60;99.90;;;;;;6159129;23;20429;-81
2021/12/16 16:49:54;;;;;;;126.60;45.28;;;8.90;99.90;;;;;;6159262;23;20035;-81
2021/12/16 16:52:30;;;;;;;131.65;45.72;;;8.40;99.90;;;;;;6183760;23;20016;-80
2021/12/16 16:55:08;;;;;;;144.15;48.60;;;8.40;99.90;;;;;;6157887;23;20109;-81
2021/12/16 16:57:49;;;;;;;123.38;35.55;;;8.40;99.90;;;;;;6159062;23;20428;-80
2021/12/16 17:00:39;;;;;;;91.10;29.80;;;8.40;99.90;;;;;;6158129;23;20096;-80
2021/12/16 17:03:18;;;;;;;119.43;31.27;;;8.60;99.90;;;;;;6157811;23;20775;-80
2021/12/16 17:06:08;;;;;;;81.82;28.35;;;8.40;99.90;;;;;;6157942;23;20434;-81
2021/12/16 17:08:37;;;;;;;219.82;38.97;;;8.40;99.90;;;;;;6107354;23;20009;-81
2021/12/16 17:11:29;;;;;;;129.90;35.90;;;8.40;99.90;;;;;;6097556;23;20054;-80
2021/12/16 17:17:27;;;;;;;81.30;27.90;;;8.50;99.90;;;;;;6098528;23;20053;-81
2021/12/16 17:20:15;;;;;;;184.07;42.30;;;8.40;99.90;;;;;;6024540;23;20026;-81
2021/12/16 17:23:34;;;;;;;199.77;54.08;;;8.50;99.90;;;;;;6098379;23;20014;-82
2021/12/16 17:26:43;;;;;;;143.93;44.03;;;8.40;99.90;;;;;;6016618;23;20474;-81
2021/12/16 17:29:20;;;;;;;289.63;54.13;;;8.40;99.90;;;;;;6038362;23;20026;-80
2021/12/16 17:32:15;;;;;;;175.02;46.03;;;8.50;99.90;;;;;;6039948;23;20022;-81
2021/12/16 17:35:08;;;;;;;226.23;51.30;;;8.50;99.90;;;;;;6038964;23;20034;-79
2021/12/16 17:37:47;;;;;;;146.05;37.72;;;8.40;99.90;;;;;;6039710;23;20022;-82
2021/12/16 17:40:26;;;;;;;239.85;39.13;;;8.50;99.90;;;;;;6038691;23;20332;-82
2021/12/16 17:43:01;;;;;;;179.07;45.05;;;8.50;99.90;;;;;;6091791;23;20026;-84
2021/12/16 17:45:31;;;;;;;81.55;30.40;;;8.50;99.90;;;;;;6045729;23;20198;-82
2021/12/16 17:48:01;;;;;;;197.75;39.13;;;8.50;99.90;;;;;;6044814;23;20032;-82
2021/12/16 17:50:50;;;;;;;169.48;34.72;;;8.50;99.90;;;;;;6045719;23;20140;-86
2021/12/16 17:53:17;;;;;;;212.27;37.50;;;8.30;99.90;;;;;;6068978;23;20423;-81
2021/12/16 17:59:34;;;;;;;110.60;31.83;;;8.50;99.90;;;;;;6022843;23;20444;-79
2021/12/16 18:02:01;;;;;;;97.28;31.73;;;8.50;99.90;;;;;;6068533;23;20021;-80
2021/12/16 18:04:28;;;;;;;165.63;36.60;;;8.50;99.90;;;;;;6096250;23;20080;-81
2021/12/16 18:07:06;;;;;;;265.63;46.67;;;8.50;99.90;;;;;;6072270;23;20340;-81
2021/12/16 18:09:48;;;;;;;270.35;93.32;;;8.60;99.90;;;;;;6095751;23;20084;-83
2021/12/16 18:12:30;;;;;;;235.25;80.85;;;9.10;99.90;;;;;;6096506;23;20084;-80
2021/12/16 18:15:03;;;;;;;249.07;62.42;;;8.50;99.90;;;;;;6071579;23;20104;-78
2021/12/16 18:17:33;;;;;;;301.67;53.03;;;8.50;99.90;;;;;;6096900;23;20048;-80
2021/12/16 18:20:13;;;;;;;300.40;54.60;;;8.60;99.90;;;;;;6121350;23;20020;-78
2021/12/16 18:22:42;;;;;;;149.20;42.72;;;8.50;99.90;;;;;;6094458;23;20018;-79
2021/12/16 18:25:30;;;;;;;103.32;35.95;;;8.60;99.90;;;;;;6096033;23;20045;-79
2021/12/16 18:28:06;;;;;;;113.18;37.72;;;8.50;99.90;;;;;;6095718;23;20049;-78
2021/12/16 18:30:38;;;;;;;174.32;36.25;;;8.60;99.90;;;;;;6096081;23;20010;-79
2021/12/16 18:33:10;;;;;;;321.95;43.35;;;8.50;99.90;;;;;;6072715;23;20018;-81
2021/12/16 18:36:15;;;;;;;232.85;39.33;;;8.50;99.90;;;;;;6116163;23;20021;-81
2021/12/16 18:39:31;;;;;;;102.32;34.20;;;8.50;99.90;;;;;;6152330;23;20074;-81
2021/12/16 18:49:46;;;;;;;97.10;32.78;;;8.50;99.90;;;;;;6006999;23;20023;-82